• Join FlightAware (Why Join?)
  • Login
  • US Flag 
10:46AM EST


 

Airport Tracker/Info


-or-


 

Live Flight TrackerFlight Track Log ✈ AZU4399 ✈ 24-Aug-2014 ✈ SBSR / SJP - SBKP / VCP

Flight Track Log - Related Links

Times and Time Zones

All times are in EDT time to prevent confusion due to time zone crossing. See the AZU4399 flight status page for this flight to view local times or setup timezone preferences in your user account.

Time Position Orientation Groundspeed Altitude Reporting Facility
EDT Latitude Longitude Course Direction KTS MPH feet Rate Location/Type
06:48AM -21.5245 -48.6728 142° Southeast 376 433 27,600  Level FlightAware ADS-B (SDAM)
06:49AM -21.6106 -48.6026 142° Southeast 380 437 29,000 913 Climbing FlightAware ADS-B (SDAM)
06:50AM -21.6527 -48.5682 142° Southeast 381 438 29,000  Level FlightAware ADS-B (SDAM)
06:50AM -21.6935 -48.5350 142° Southeast 383 441 29,000  Level FlightAware ADS-B (SDAM)
06:51AM -21.7377 -48.4989 142° Southeast 384 442 29,000  Level FlightAware ADS-B (SDAM)
06:51AM -21.7811 -48.4635 142° Southeast 386 444 29,000  Level FlightAware ADS-B (SDAM)
06:52AM -21.8244 -48.4280 142° Southeast 386 444 29,000  Level FlightAware ADS-B (SDAM)
06:52AM -21.8661 -48.3938 142° Southeast 386 444 29,000  Level FlightAware ADS-B (SDAM)
06:53AM -21.9103 -48.3574 142° Southeast 386 444 29,000  Level FlightAware ADS-B (SDAM)
06:53AM -21.9527 -48.3226 142° Southeast 386 444 29,000 -400 Level FlightAware ADS-B (SDAM)
06:54AM -21.9960 -48.2870 142° Southeast 384 442 28,600 -1,400 Descending FlightAware ADS-B (SDAM)
06:54AM -22.0380 -48.2525 142° Southeast 380 437 27,600 -2,000 Descending FlightAware ADS-B (SDAM)
06:55AM -22.0805 -48.2174 142° Southeast 383 441 26,600 -1,967 Descending FlightAware ADS-B (SDAM)
06:55AM -22.1236 -48.1820 142° Southeast 386 444 25,600 -1,967 Descending FlightAware ADS-B (SDAM)
06:56AM -22.1668 -48.1465 142° Southeast 386 444 24,600 -2,200 Descending FlightAware ADS-B (SDAM)
06:56AM -22.2080 -48.1083 136° Southeast 390 449 23,400 -2,300 Descending FlightAware ADS-B (SDAM)
06:57AM -22.2455 -48.0674 134° Southeast 383 441 22,300 -2,100 Descending FlightAware ADS-B (SDAM)
06:57AM -22.2828 -48.0267 134° Southeast 376 433 21,300 -1,967 Descending FlightAware ADS-B (SDAM)
06:58AM -22.3199 -47.9860 134° Southeast 370 426 20,300 -1,869 Descending FlightAware ADS-B (SDAM)
06:58AM -22.3554 -47.9469 134° Southeast 364 419 19,400 -1,900 Descending FlightAware ADS-B (SDAM)
06:59AM -22.3905 -47.9083 134° Southeast 356 410 18,400 -1,900 Descending FlightAware ADS-B (SDAM)
06:59AM -22.4251 -47.8702 134° Southeast 350 403 17,500 -1,869 Descending FlightAware ADS-B (SDAM)
07:00AM -22.4599 -47.8317 134° Southeast 345 397 16,500 -1,869 Descending FlightAware ADS-B (SDAM)
07:00AM -22.4932 -47.7949 134° Southeast 339 390 15,600 -1,800 Descending FlightAware ADS-B (SDAM)
07:01AM -22.5259 -47.7588 134° Southeast 334 384 14,700 -1,800 Descending FlightAware ADS-B (SDAM)
07:01AM -22.5583 -47.7231 134° Southeast 330 380 13,800 -1,800 Descending FlightAware ADS-B (SDAM)
07:02AM -22.5905 -47.6874 134° Southeast 326 375 12,900 -1,770 Descending FlightAware ADS-B (SDAM)
07:02AM -22.6225 -47.6519 134° Southeast 323 372 12,000 -1,770 Descending FlightAware ADS-B (SDAM)
07:03AM -22.6544 -47.6166 134° Southeast 321 369 11,100 -1,800 Descending FlightAware ADS-B (SDAM)
07:03AM -22.6853 -47.5822 133° Southeast 315 362 10,200 -1,377 Descending FlightAware ADS-B (SDAM)
07:04AM -22.7129 -47.5463 127° Southeast 300 345 9,700 -1,377 Descending FlightAware ADS-B (SDAM)
07:04AM -22.7380 -47.5101 126° Southeast 296 341 8,800 -1,500 Descending FlightAware ADS-B (SDAM)
07:05AM -22.7626 -47.4753 127° Southeast 289 333 8,200 -1,019 Descending FlightAware ADS-B (SDAM)
07:05AM -22.7806 -47.4501 127° Southeast 277 319 7,900 -811 Descending FlightAware ADS-B (SBSP / CGH)
07:05AM -22.7906 -47.4364 128° Southeast 273 314 7,700 -486 Descending FlightAware ADS-B (SBSP / CGH)
07:06AM -22.8090 -47.4106 127° Southeast 251 289 7,600 -450 Descending FlightAware ADS-B (SDAM)
07:06AM -22.8201 -47.3952 128° Southeast 273 314 7,400 -857 Descending FlightAware ADS-B (SBSP / CGH)
07:06AM -22.8338 -47.3762 127° Southeast 243 280 7,100 -1,091 Descending FlightAware ADS-B (SDAM)
07:07AM -22.8510 -47.3522 127° Southeast 235 270 6,600 -1,179 Descending FlightAware ADS-B (SDAM)
07:07AM -22.8708 -47.3247 127° Southeast 227 261 6,000 -1,200 Descending FlightAware ADS-B (SDAM)
07:08AM -22.8903 -47.2975 127° Southeast 220 253 5,400 -1,200 Descending FlightAware ADS-B (SDAM)
07:08AM -22.9086 -47.2721 127° Southeast 210 242 4,800 -1,082 Descending FlightAware ADS-B (SDAM)
07:09AM -22.9265 -47.2473 128° Southeast 202 232 4,300 -984 Descending FlightAware ADS-B (SDAM)
07:09AM -22.9434 -47.2238 127° Southeast 196 226 3,800 -1,000 Descending FlightAware ADS-B (SDAM)
07:10AM -22.9599 -47.2007 128° Southeast 180 207 3,300 -1,000 Descending FlightAware ADS-B (SDAM)
07:10AM -22.9739 -47.1812 127° Southeast 153 176 2,800 -885 Descending FlightAware ADS-B (SDAM)
07:11AM -22.9869 -47.1630 127° Southeast 149 171 2,400 14,361 Descending FlightAware ADS-B (SDAM)
07:11AM -22.9985 -47.1469 127° Southeast 146 168 17,400 -421 Climbing FlightAware ADS-B (SDAM)
07:12AM -23.0049 -47.1381 127° Southeast 122 140 2,000 -34,222 Descending FlightAware ADS-B (SDAM)
07:14AM -23.0082 -47.1347 137° Southeast  Level Estimated
07:15AM -23.0082 -47.1347 131° Southeast  Level Estimated